createdAt,value
2023-03-18T00:02:48.736Z,86.60
2023-03-18T00:05:52.808Z,86.50
2023-03-18T00:08:55.638Z,87.20
2023-03-18T00:11:58.476Z,87.00
2023-03-18T00:15:02.472Z,87.30
2023-03-18T00:18:06.817Z,87.50
2023-03-18T00:21:11.012Z,87.20
2023-03-18T00:24:15.356Z,87.70
2023-03-18T00:27:18.177Z,87.10
2023-03-18T00:30:22.085Z,87.60
2023-03-18T00:33:26.240Z,87.70
2023-03-18T00:36:30.436Z,87.60
2023-03-18T00:39:34.097Z,87.70
2023-03-18T00:42:42.633Z,87.70
2023-03-18T00:45:46.055Z,87.80
2023-03-18T00:48:50.291Z,87.80
2023-03-18T00:51:53.149Z,88.30
2023-03-18T00:54:56.688Z,88.30
2023-03-18T00:57:59.524Z,88.20
2023-03-18T01:01:02.805Z,88.50
2023-03-18T01:04:08.253Z,88.20
2023-03-18T01:07:11.782Z,88.10
2023-03-18T01:10:15.911Z,88.10
2023-03-18T01:13:18.773Z,89.20
2023-03-18T01:16:22.849Z,88.90
2023-03-18T01:19:27.200Z,89.20
2023-03-18T01:22:30.483Z,89.00
2023-03-18T01:25:33.758Z,89.00
2023-03-18T01:28:36.937Z,88.60
2023-03-18T01:31:39.940Z,89.10
2023-03-18T01:34:44.191Z,89.30
2023-03-18T01:37:47.116Z,89.70
2023-03-18T01:40:50.002Z,88.80
2023-03-18T01:43:54.654Z,89.10
2023-03-18T01:46:57.559Z,89.30
2023-03-18T01:50:01.831Z,89.30
2023-03-18T01:53:09.048Z,89.00
2023-03-18T01:56:12.891Z,89.20
2023-03-18T01:59:16.916Z,89.10
2023-03-18T02:02:20.683Z,89.40
2023-03-18T02:08:28.991Z,90.00
2023-03-18T02:11:34.268Z,90.00
2023-03-18T02:14:37.255Z,89.80
2023-03-18T02:17:43.739Z,89.70
2023-03-18T02:21:01.816Z,89.90
2023-03-18T02:24:10.617Z,89.80
2023-03-18T02:27:18.844Z,90.00
2023-03-18T02:30:28.052Z,90.10
2023-03-18T02:33:36.387Z,90.00
2023-03-18T02:36:39.321Z,90.20
2023-03-18T02:39:42.243Z,90.10
2023-03-18T02:42:47.595Z,90.00
2023-03-18T02:46:02.414Z,90.00
2023-03-18T02:49:08.667Z,90.30
2023-03-18T02:52:11.964Z,90.30
2023-03-18T02:55:15.491Z,90.50
2023-03-18T02:58:19.714Z,90.60
2023-03-18T03:01:23.524Z,90.60
2023-03-18T03:04:27.173Z,90.40
2023-03-18T03:07:30.261Z,90.50
2023-03-18T03:10:33.372Z,90.60
2023-03-18T03:13:38.860Z,90.70
2023-03-18T03:16:41.729Z,90.80
2023-03-18T03:19:44.709Z,91.00
2023-03-18T03:22:48.036Z,91.20
2023-03-18T03:25:51.008Z,91.10
2023-03-18T03:28:55.770Z,91.10
2023-03-18T03:31:58.586Z,91.10
2023-03-18T03:35:01.441Z,91.30
2023-03-18T03:38:04.387Z,91.40
2023-03-18T03:41:10.146Z,91.40
2023-03-18T03:44:14.317Z,91.50
2023-03-18T03:47:17.130Z,91.60
2023-03-18T03:50:20.213Z,91.50
2023-03-18T03:53:23.085Z,91.50
2023-03-18T03:56:26.030Z,91.50
2023-03-18T03:59:30.385Z,91.80
2023-03-18T04:02:33.232Z,91.40
2023-03-18T04:05:36.063Z,91.60
2023-03-18T04:08:38.973Z,91.50
2023-03-18T04:11:42.860Z,91.60
2023-03-18T04:14:48.649Z,91.70
2023-03-18T04:17:53.458Z,91.70
2023-03-18T04:20:56.481Z,91.70
2023-03-18T04:23:59.296Z,91.80
2023-03-18T04:27:02.105Z,91.90
2023-03-18T04:30:08.085Z,91.70
2023-03-18T04:33:11.063Z,91.70
2023-03-18T04:36:14.035Z,91.90
2023-03-18T04:39:16.875Z,91.70
2023-03-18T04:42:19.694Z,91.70
2023-03-18T04:45:24.879Z,91.90
2023-03-18T04:48:28.491Z,92.10
2023-03-18T04:51:31.328Z,92.10
2023-03-18T04:54:34.619Z,91.90
2023-03-18T04:57:38.533Z,92.00
2023-03-18T05:00:44.024Z,91.90
2023-03-18T05:03:47.317Z,92.00
2023-03-18T05:06:50.466Z,91.90
2023-03-18T05:09:53.307Z,92.10
2023-03-18T05:12:56.358Z,92.10
2023-03-18T05:16:00.540Z,92.00
2023-03-18T05:19:03.562Z,92.00
2023-03-18T05:22:06.579Z,91.90
2023-03-18T05:25:11.495Z,92.10
2023-03-18T05:28:14.346Z,92.00
2023-03-18T05:31:18.612Z,92.20
2023-03-18T05:34:21.532Z,92.00
2023-03-18T05:37:24.877Z,91.90
2023-03-18T05:40:27.711Z,91.90
2023-03-18T05:43:30.544Z,91.80
2023-03-18T05:46:34.761Z,92.00
2023-03-18T05:49:37.635Z,92.10
2023-03-18T05:52:40.489Z,92.10
2023-03-18T05:55:43.516Z,92.30
2023-03-18T05:58:46.382Z,92.60
2023-03-18T06:01:50.978Z,92.40
2023-03-18T06:04:53.815Z,92.60
2023-03-18T06:07:57.239Z,92.40
2023-03-18T06:11:00.075Z,92.40
2023-03-18T06:14:03.291Z,92.60
2023-03-18T06:17:07.887Z,92.90
2023-03-18T06:20:14.229Z,92.70
2023-03-18T06:23:17.298Z,92.90
2023-03-18T06:26:20.218Z,93.40
2023-03-18T06:29:23.043Z,93.50
2023-03-18T06:32:28.133Z,93.50
2023-03-18T06:35:31.800Z,93.60
2023-03-18T06:38:34.742Z,93.60
2023-03-18T06:41:37.626Z,93.80
2023-03-18T06:44:42.772Z,94.20
2023-03-18T06:47:47.984Z,94.20
2023-03-18T06:50:50.824Z,94.40
2023-03-18T06:53:54.596Z,94.40
2023-03-18T06:56:57.425Z,94.80
2023-03-18T07:00:00.375Z,94.60
2023-03-18T07:03:05.489Z,94.90
2023-03-18T07:06:09.701Z,95.30
2023-03-18T07:09:15.131Z,94.90
2023-03-18T07:12:17.954Z,94.50
2023-03-18T07:15:22.521Z,94.30
2023-03-18T07:18:26.792Z,93.90
2023-03-18T07:21:29.791Z,93.50
2023-03-18T07:24:32.642Z,93.70
2023-03-18T07:27:35.749Z,93.60
2023-03-18T07:30:39.537Z,93.10
2023-03-18T07:33:43.787Z,92.80
2023-03-18T07:36:46.893Z,92.90
2023-03-18T07:39:49.743Z,92.60
2023-03-18T07:42:53.495Z,92.30
2023-03-18T07:45:56.644Z,92.00
2023-03-18T07:49:01.066Z,91.90
2023-03-18T07:52:03.939Z,91.90
2023-03-18T07:55:09.169Z,91.50
2023-03-18T07:58:12.219Z,91.40
2023-03-18T08:01:18.445Z,91.20
2023-03-18T08:04:23.843Z,91.00
2023-03-18T08:07:26.763Z,91.00
2023-03-18T08:10:29.938Z,91.20
2023-03-18T08:13:32.866Z,90.30
2023-03-18T08:16:35.698Z,90.20
2023-03-18T08:19:40.003Z,90.10
2023-03-18T08:22:42.883Z,90.00
2023-03-18T08:25:49.548Z,89.00
2023-03-18T08:28:52.599Z,88.80
2023-03-18T08:31:55.497Z,88.40
2023-03-18T08:34:59.772Z,87.30
2023-03-18T08:38:04.150Z,88.10
2023-03-18T08:41:07.187Z,87.50
2023-03-18T08:44:10.900Z,85.60
2023-03-18T08:47:13.896Z,85.40
2023-03-18T08:50:19.587Z,86.00
2023-03-18T08:53:22.412Z,85.00
2023-03-18T08:56:25.311Z,82.60
2023-03-18T08:59:28.231Z,82.40
2023-03-18T09:02:31.325Z,81.80
2023-03-18T09:05:35.827Z,82.80
2023-03-18T09:08:39.549Z,79.00
2023-03-18T09:11:42.457Z,77.40
2023-03-18T09:14:45.562Z,76.40
2023-03-18T09:18:03.944Z,76.80
2023-03-18T09:21:12.611Z,76.90
2023-03-18T09:24:15.978Z,75.70
2023-03-18T09:27:18.904Z,76.40
2023-03-18T09:30:22.077Z,78.20
2023-03-18T09:33:25.602Z,76.50
2023-03-18T09:36:29.793Z,75.20
2023-03-18T09:39:32.692Z,75.00
2023-03-18T09:42:49.748Z,76.00
2023-03-18T09:46:03.088Z,74.70
2023-03-18T09:49:29.188Z,76.60
2023-03-18T09:52:36.535Z,72.60
2023-03-18T09:55:46.542Z,71.40
2023-03-18T09:58:54.855Z,71.20
2023-03-18T10:01:59.981Z,69.50
2023-03-18T10:05:08.013Z,69.70
2023-03-18T10:08:18.047Z,68.80
2023-03-18T10:11:26.322Z,68.70
2023-03-18T10:14:38.016Z,66.50
2023-03-18T10:17:43.738Z,67.10
2023-03-18T10:20:56.328Z,64.70
2023-03-18T10:24:07.475Z,64.40
2023-03-18T10:27:17.925Z,62.90
2023-03-18T10:30:32.690Z,65.20
2023-03-18T10:33:46.258Z,63.70
2023-03-18T10:36:55.689Z,62.60
2023-03-18T10:40:00.771Z,63.80
2023-03-18T10:43:05.658Z,58.60
2023-03-18T10:46:13.586Z,60.50
2023-03-18T10:49:21.056Z,61.20
2023-03-18T10:52:34.535Z,60.60
2023-03-18T10:55:46.236Z,59.50
2023-03-18T10:58:49.218Z,58.70
2023-03-18T11:01:58.617Z,57.20
2023-03-18T11:05:06.485Z,56.70
2023-03-18T11:08:28.806Z,55.50
2023-03-18T11:11:34.754Z,56.40
2023-03-18T11:14:38.409Z,55.10
2023-03-18T11:17:41.678Z,55.00
2023-03-18T11:20:47.765Z,56.50
2023-03-18T11:24:10.302Z,56.60
2023-03-18T11:27:28.010Z,54.10
2023-03-18T11:30:36.059Z,54.20
2023-03-18T11:33:39.264Z,55.50
2023-03-18T11:36:42.056Z,55.00
2023-03-18T11:39:44.890Z,53.70
2023-03-18T11:42:54.718Z,53.60
2023-03-18T11:46:00.440Z,52.10
2023-03-18T11:49:04.051Z,52.00
2023-03-18T11:52:34.489Z,50.40
2023-03-18T11:55:44.473Z,47.90
2023-03-18T11:59:14.593Z,48.50
2023-03-18T12:02:29.838Z,48.10
2023-03-18T12:05:44.023Z,50.00
2023-03-18T12:09:03.278Z,48.60
2023-03-18T12:12:19.569Z,49.50
2023-03-18T12:15:36.364Z,47.30
2023-03-18T12:18:51.627Z,47.50
2023-03-18T12:22:05.751Z,47.30
2023-03-18T12:25:32.836Z,44.60
2023-03-18T12:28:46.613Z,44.90
2023-03-18T12:32:08.033Z,43.10
2023-03-18T12:35:43.411Z,43.70
2023-03-18T12:39:05.810Z,44.90
2023-03-18T12:42:13.418Z,44.70
2023-03-18T12:45:19.336Z,44.10
2023-03-18T12:48:43.059Z,43.90
2023-03-18T12:51:50.996Z,43.70
2023-03-18T12:55:01.151Z,43.20
2023-03-18T12:58:07.424Z,42.40
2023-03-18T13:01:18.007Z,44.50
2023-03-18T13:04:28.149Z,43.40
2023-03-18T13:07:41.131Z,44.50
2023-03-18T13:10:46.684Z,43.80
2023-03-18T13:13:55.081Z,43.70
2023-03-18T13:16:59.153Z,44.70
2023-03-18T13:20:11.027Z,43.20
2023-03-18T13:23:45.310Z,44.30
2023-03-18T13:27:04.966Z,42.70
2023-03-18T13:30:17.485Z,42.90
2023-03-18T13:33:37.858Z,43.10
2023-03-18T13:37:12.368Z,42.40
2023-03-18T13:40:25.588Z,41.30
2023-03-18T13:43:30.877Z,40.80
2023-03-18T13:46:34.876Z,41.70
2023-03-18T13:49:39.632Z,40.50
2023-03-18T13:52:45.546Z,38.50
2023-03-18T13:55:55.188Z,41.20
2023-03-18T13:58:58.118Z,41.50
2023-03-18T14:02:45.465Z,42.00
2023-03-18T14:05:49.056Z,39.70
2023-03-18T14:08:54.330Z,41.80
2023-03-18T14:12:05.260Z,39.70
2023-03-18T14:15:37.277Z,39.60
2023-03-18T14:18:41.365Z,38.80
2023-03-18T14:21:48.581Z,38.20
2023-03-18T14:25:11.908Z,37.90
2023-03-18T14:28:24.725Z,39.20
2023-03-18T14:31:33.526Z,37.90
2023-03-18T14:34:55.098Z,39.40
2023-03-18T14:38:03.994Z,37.80
2023-03-18T14:41:17.337Z,37.50
2023-03-18T14:44:25.102Z,37.70
2023-03-18T14:47:39.519Z,38.00
2023-03-18T14:50:45.435Z,39.60
2023-03-18T14:53:53.184Z,37.20
2023-03-18T14:56:57.980Z,38.50
2023-03-18T15:00:01.599Z,37.30
2023-03-18T15:03:08.330Z,39.60
2023-03-18T15:06:19.096Z,37.60
2023-03-18T15:09:25.562Z,39.40
2023-03-18T15:12:30.608Z,39.00
2023-03-18T15:15:33.721Z,38.20
2023-03-18T15:18:39.895Z,38.90
2023-03-18T15:21:42.963Z,40.10
2023-03-18T15:24:46.263Z,38.90
2023-03-18T15:27:50.763Z,39.20
2023-03-18T15:30:55.981Z,40.00
2023-03-18T15:34:07.615Z,41.20
2023-03-18T15:37:33.553Z,41.90
2023-03-18T15:40:46.095Z,40.90
2023-03-18T15:43:52.547Z,41.90
2023-03-18T15:46:56.282Z,41.60
2023-03-18T15:50:01.385Z,41.30
2023-03-18T15:53:07.985Z,42.80
2023-03-18T15:56:20.877Z,42.40
2023-03-18T15:59:28.661Z,42.40
2023-03-18T16:02:32.111Z,41.90
2023-03-18T16:05:35.384Z,42.00
2023-03-18T16:08:38.669Z,43.00
2023-03-18T16:11:41.673Z,42.70
2023-03-18T16:14:49.083Z,42.90
2023-03-18T16:17:53.393Z,43.60
2023-03-18T16:20:57.363Z,43.30
2023-03-18T16:24:01.002Z,44.50
2023-03-18T16:27:05.967Z,48.40
2023-03-18T16:30:18.822Z,44.60
2023-03-18T16:33:22.508Z,44.40
2023-03-18T16:36:35.021Z,44.60
2023-03-18T16:39:37.943Z,45.10
2023-03-18T16:42:41.369Z,45.90
2023-03-18T16:45:47.192Z,45.80
2023-03-18T16:48:50.435Z,45.70
2023-03-18T16:51:53.417Z,47.00
2023-03-18T16:54:56.233Z,45.00
2023-03-18T16:58:00.727Z,45.60
2023-03-18T17:01:06.198Z,45.60
2023-03-18T17:04:19.764Z,46.90
2023-03-18T17:07:22.707Z,46.40
2023-03-18T17:10:27.753Z,46.20
2023-03-18T17:13:33.799Z,46.50
2023-03-18T17:16:38.216Z,47.10
2023-03-18T17:19:41.235Z,48.00
2023-03-18T17:22:45.021Z,47.40
2023-03-18T17:25:53.850Z,48.00
2023-03-18T17:28:58.588Z,48.00
2023-03-18T17:32:02.730Z,48.10
2023-03-18T17:35:14.137Z,48.90
2023-03-18T17:38:16.967Z,49.70
2023-03-18T17:41:21.880Z,49.90
2023-03-18T17:44:29.766Z,50.20
2023-03-18T17:47:34.285Z,50.60
2023-03-18T17:50:37.321Z,51.00
2023-03-18T17:53:42.771Z,50.90
2023-03-18T17:56:45.821Z,51.40
2023-03-18T17:59:49.105Z,52.00
2023-03-18T18:02:55.342Z,52.20
2023-03-18T18:06:00.126Z,52.50
2023-03-18T18:09:04.377Z,52.50
2023-03-18T18:12:12.843Z,52.50
2023-03-18T18:15:22.406Z,52.90
2023-03-18T18:18:29.119Z,53.10
2023-03-18T18:21:32.119Z,53.80
2023-03-18T18:24:35.637Z,54.30
2023-03-18T18:27:38.469Z,54.40
2023-03-18T18:30:41.554Z,54.60
2023-03-18T18:33:46.751Z,54.80
2023-03-18T18:36:50.632Z,54.90
2023-03-18T18:39:53.461Z,55.30
2023-03-18T18:42:56.842Z,55.90
2023-03-18T18:46:00.391Z,56.00
2023-03-18T18:49:04.752Z,56.40
2023-03-18T18:52:12.638Z,56.80
2023-03-18T18:55:15.598Z,56.70
2023-03-18T18:58:20.100Z,56.80
2023-03-18T19:01:23.196Z,56.80
2023-03-18T19:04:27.756Z,57.10
2023-03-18T19:07:30.678Z,57.80
2023-03-18T19:10:33.654Z,58.30
2023-03-18T19:13:38.281Z,58.10
2023-03-18T19:16:41.114Z,58.70
2023-03-18T19:19:45.988Z,58.60
2023-03-18T19:22:50.612Z,58.90
2023-03-18T19:25:54.191Z,59.40
2023-03-18T19:28:59.843Z,59.60
2023-03-18T19:32:03.495Z,59.60
2023-03-18T19:35:11.044Z,59.70
2023-03-18T19:38:18.170Z,59.80
2023-03-18T19:41:21.941Z,60.20
2023-03-18T19:44:26.137Z,60.20
2023-03-18T19:47:31.638Z,60.60
2023-03-18T19:50:36.094Z,61.40
2023-03-18T19:53:39.282Z,61.40
2023-03-18T19:56:42.103Z,61.50
2023-03-18T19:59:47.946Z,61.60
2023-03-18T20:02:51.495Z,62.00
2023-03-18T20:05:55.706Z,62.50
2023-03-18T20:08:58.713Z,63.50
2023-03-18T20:12:05.614Z,63.60
2023-03-18T20:15:14.734Z,63.60
2023-03-18T20:18:20.173Z,63.40
2023-03-18T20:21:29.534Z,63.50
2023-03-18T20:24:32.442Z,63.70
2023-03-18T20:27:35.631Z,64.20
2023-03-18T20:30:40.260Z,64.40
2023-03-18T20:33:43.098Z,64.70
2023-03-18T20:36:47.283Z,65.40
2023-03-18T20:39:52.165Z,64.80
2023-03-18T20:42:55.581Z,65.20
2023-03-18T20:46:00.709Z,65.40
2023-03-18T20:49:04.410Z,65.90
2023-03-18T20:52:21.711Z,65.90
2023-03-18T20:55:26.526Z,66.40
2023-03-18T20:58:29.543Z,66.60
2023-03-18T21:01:32.855Z,66.80
2023-03-18T21:04:37.108Z,66.90
2023-03-18T21:07:41.879Z,67.80
2023-03-18T21:10:44.904Z,67.50
2023-03-18T21:13:47.858Z,67.70
2023-03-18T21:16:51.760Z,67.90
2023-03-18T21:20:04.922Z,67.70
2023-03-18T21:23:23.792Z,67.70
2023-03-18T21:26:26.719Z,67.40
2023-03-18T21:29:29.621Z,67.90
2023-03-18T21:32:32.818Z,68.10
2023-03-18T21:35:36.451Z,68.60
2023-03-18T21:38:40.865Z,68.60
2023-03-18T21:41:43.868Z,68.50
2023-03-18T21:44:47.084Z,68.90
2023-03-18T21:47:50.033Z,69.30
2023-03-18T21:50:53.076Z,70.20
2023-03-18T21:53:57.825Z,69.80
2023-03-18T21:57:00.932Z,69.90
2023-03-18T22:00:04.790Z,70.00
2023-03-18T22:03:14.390Z,70.10
2023-03-18T22:06:18.492Z,70.20
2023-03-18T22:09:24.143Z,70.20
2023-03-18T22:12:28.998Z,70.70
2023-03-18T22:15:37.816Z,70.70
2023-03-18T22:18:41.566Z,71.00
2023-03-18T22:21:44.370Z,70.80
2023-03-18T22:24:49.022Z,71.00
2023-03-18T22:27:51.809Z,70.80
2023-03-18T22:30:55.787Z,71.40
2023-03-18T22:33:58.759Z,72.00
2023-03-18T22:37:01.676Z,72.00
2023-03-18T22:40:06.835Z,71.90
2023-03-18T22:43:19.172Z,72.30
2023-03-18T22:46:22.027Z,72.40
2023-03-18T22:49:24.852Z,72.70
2023-03-18T22:52:30.781Z,72.90
2023-03-18T22:55:38.639Z,73.40
2023-03-18T22:58:41.585Z,73.30
2023-03-18T23:01:44.616Z,73.50
2023-03-18T23:04:49.010Z,73.70
2023-03-18T23:07:52.454Z,73.70
2023-03-18T23:10:59.832Z,74.20
2023-03-18T23:14:03.519Z,74.40
2023-03-18T23:17:06.297Z,74.30
2023-03-18T23:20:10.717Z,74.60
2023-03-18T23:23:14.616Z,74.80
2023-03-18T23:26:19.160Z,75.00
2023-03-18T23:29:21.972Z,74.90
2023-03-18T23:32:25.630Z,75.10
2023-03-18T23:35:28.513Z,76.20
2023-03-18T23:38:31.355Z,77.00
2023-03-18T23:41:35.497Z,76.10
2023-03-18T23:44:38.572Z,76.00
2023-03-18T23:47:41.575Z,76.80
2023-03-18T23:50:44.360Z,75.80
2023-03-18T23:53:47.189Z,75.70
2023-03-18T23:56:51.607Z,75.90
2023-03-18T23:59:54.466Z,75.70
